Time;durP1;ratioP1;P1;durP2;ratioP2;P2;SDS_P1;SDS_P2;PMS_P1;PMS_P2;Temp;Humidity;BMP_temperature;BMP_pressure;BME280_temperature;BME280_humidity;BME280_pressure;Samples;Min_cycle;Max_cycle;Signal;HPM_P1;HPM_P2
2021/04/26 00:00:11;;;;;;;6.20;3.85;;;4.60;99.90;;;;;;5137065;27;20254;-82
2021/04/26 00:02:37;;;;;;;10.80;3.53;;;4.50;99.90;;;;;;5136747;27;20513;-82
2021/04/26 00:05:05;;;;;;;9.17;3.97;;;4.60;99.90;;;;;;5136169;27;20261;-82
2021/04/26 00:07:30;;;;;;;8.77;3.85;;;4.60;99.90;;;;;;5136379;27;20568;-82
2021/04/26 00:09:56;;;;;;;7.10;3.50;;;4.60;99.90;;;;;;5118010;27;20170;-82
2021/04/26 00:12:22;;;;;;;5.73;3.30;;;4.60;99.90;;;;;;5136482;27;20166;-82
2021/04/26 00:14:47;;;;;;;8.80;4.13;;;4.60;99.90;;;;;;5117875;27;20536;-83
2021/04/26 00:17:13;;;;;;;11.43;3.70;;;4.60;99.90;;;;;;5136208;27;20198;-80
2021/04/26 00:19:38;;;;;;;6.77;3.40;;;4.60;99.90;;;;;;5117841;27;20267;-83
2021/04/26 00:22:04;;;;;;;5.40;3.40;;;4.60;99.90;;;;;;5136255;27;20178;-82
2021/04/26 00:24:30;;;;;;;8.67;4.77;;;4.60;99.90;;;;;;5117490;27;20190;-84
2021/04/26 00:26:55;;;;;;;8.67;3.87;;;4.80;99.90;;;;;;5100633;27;20190;-84
2021/04/26 00:29:21;;;;;;;4.50;3.50;;;4.80;99.90;;;;;;5136135;27;20162;-81
2021/04/26 00:31:47;;;;;;;6.27;3.80;;;4.70;99.90;;;;;;5117792;27;20510;-83
2021/04/26 00:34:12;;;;;;;7.43;3.30;;;4.70;99.90;;;;;;5117731;27;20226;-83
2021/04/26 00:36:38;;;;;;;8.40;3.60;;;4.60;99.90;;;;;;5117405;27;20212;-82
2021/04/26 00:39:04;;;;;;;9.20;4.07;;;4.60;99.90;;;;;;5117625;27;20177;-83
2021/04/26 00:41:30;;;;;;;10.25;4.97;;;4.50;99.90;;;;;;5136077;27;20190;-83
2021/04/26 00:43:55;;;;;;;5.40;3.77;;;4.50;99.90;;;;;;5135827;27;20243;-82
2021/04/26 00:46:21;;;;;;;6.43;3.70;;;4.50;99.90;;;;;;5100660;27;20201;-83
2021/04/26 00:48:47;;;;;;;11.90;4.30;;;4.40;99.90;;;;;;5101126;27;20175;-85
2021/04/26 00:51:13;;;;;;;6.80;4.05;;;4.40;99.90;;;;;;5120114;27;20159;-83
2021/04/26 00:53:39;;;;;;;7.00;3.60;;;4.40;99.90;;;;;;5117414;27;20175;-83
2021/04/26 00:56:06;;;;;;;4.85;4.20;;;4.30;99.90;;;;;;5116970;27;20191;-82
2021/04/26 00:58:32;;;;;;;8.10;4.55;;;4.30;99.90;;;;;;5135710;27;20169;-82
2021/04/26 01:00:58;;;;;;;8.90;4.10;;;4.20;99.90;;;;;;5135686;27;20190;-83
2021/04/26 01:03:24;;;;;;;5.22;3.80;;;4.30;99.90;;;;;;5117562;27;20166;-81
2021/04/26 01:05:49;;;;;;;7.60;3.90;;;4.30;99.90;;;;;;5135978;27;20552;-81
2021/04/26 01:08:15;;;;;;;9.60;3.50;;;4.40;99.90;;;;;;5136048;27;20486;-82
2021/04/26 01:10:41;;;;;;;6.43;3.53;;;4.30;99.90;;;;;;5136206;27;20253;-82
2021/04/26 01:13:46;;;;;;;5.40;4.17;;;4.30;99.90;;;;;;5135222;27;20177;-83
2021/04/26 01:16:35;;;;;;;8.38;3.95;;;4.40;99.90;;;;;;5135078;27;20426;-82
2021/04/26 01:19:06;;;;;;;5.82;3.65;;;4.40;99.90;;;;;;5116771;27;20200;-85
2021/04/26 01:21:53;;;;;;;4.55;3.75;;;4.40;99.90;;;;;;5135329;27;20179;-80
2021/04/26 01:24:21;;;;;;;8.30;3.85;;;4.40;99.90;;;;;;5134906;27;20179;-82
2021/04/26 01:27:15;;;;;;;7.38;3.63;;;4.40;99.90;;;;;;5134843;27;20293;-81
2021/04/26 01:29:48;;;;;;;5.18;3.35;;;4.30;99.90;;;;;;5116607;27;20161;-83
2021/04/26 01:32:36;;;;;;;6.75;3.75;;;4.20;99.90;;;;;;5116497;27;20166;-82
2021/04/26 01:35:03;;;;;;;7.43;4.13;;;4.10;99.90;;;;;;5134615;27;20212;-83
2021/04/26 01:37:31;;;;;;;8.32;4.25;;;4.00;99.90;;;;;;5116434;27;20198;-84
2021/04/26 01:39:59;;;;;;;9.63;4.25;;;4.00;99.90;;;;;;5134983;27;20171;-84
2021/04/26 01:42:25;;;;;;;7.57;4.35;;;3.90;99.90;;;;;;5135016;27;20171;-83
2021/04/26 01:44:51;;;;;;;6.05;3.92;;;4.00;99.90;;;;;;5135007;27;20202;-84
2021/04/26 01:47:18;;;;;;;10.40;5.10;;;4.00;99.90;;;;;;5135044;27;20248;-82
2021/04/26 01:49:45;;;;;;;4.68;3.90;;;3.90;99.90;;;;;;5135130;27;20163;-81
2021/04/26 01:52:11;;;;;;;7.35;4.22;;;4.00;99.90;;;;;;5134700;27;20536;-83
2021/04/26 01:54:38;;;;;;;7.68;4.85;;;3.90;99.90;;;;;;5116634;27;20247;-83
2021/04/26 01:57:05;;;;;;;7.45;4.18;;;3.80;99.90;;;;;;5116601;27;20191;-81
2021/04/26 01:59:33;;;;;;;8.40;3.67;;;3.80;99.90;;;;;;5116921;27;20255;-82
2021/04/26 02:01:59;;;;;;;6.78;4.30;;;3.80;99.90;;;;;;5134701;27;20637;-84
2021/04/26 02:04:31;;;;;;;5.30;4.17;;;3.80;99.90;;;;;;5134849;28;20202;-83
2021/04/26 02:06:57;;;;;;;9.38;4.70;;;3.70;99.90;;;;;;5117363;28;20468;-82
2021/04/26 02:09:24;;;;;;;10.60;5.22;;;3.80;99.90;;;;;;5116775;28;20166;-83
2021/04/26 02:11:51;;;;;;;5.78;4.35;;;3.70;99.90;;;;;;5135614;28;20190;-82
2021/04/26 02:14:18;;;;;;;6.57;4.40;;;3.70;99.90;;;;;;5135210;28;20166;-81
2021/04/26 02:16:44;;;;;;;9.88;4.85;;;3.70;99.90;;;;;;5117238;28;20194;-81
2021/04/26 02:19:11;;;;;;;8.33;5.10;;;3.70;99.90;;;;;;5116766;28;20182;-82
2021/04/26 02:21:39;;;;;;;12.23;6.32;;;3.70;99.90;;;;;;5135108;28;20183;-83
2021/04/26 02:24:05;;;;;;;11.05;4.93;;;3.70;99.90;;;;;;5116679;28;20553;-84
2021/04/26 02:26:32;;;;;;;9.45;4.68;;;3.70;99.90;;;;;;5137527;27;20640;-82
2021/04/26 02:28:57;;;;;;;8.13;3.90;;;3.60;99.90;;;;;;5103856;27;20177;-84
2021/04/26 02:31:26;;;;;;;8.20;4.30;;;3.60;99.90;;;;;;5120442;27;20166;-81
2021/04/26 02:34:11;;;;;;;7.43;4.30;;;3.60;99.90;;;;;;5120661;27;20174;-82
2021/04/26 02:36:41;;;;;;;7.40;3.95;;;3.60;99.90;;;;;;5139027;27;20545;-83
2021/04/26 02:39:08;;;;;;;8.00;4.70;;;3.60;99.90;;;;;;5139151;27;20173;-83
2021/04/26 02:41:39;;;;;;;6.05;3.72;;;3.50;99.90;;;;;;5139087;27;20179;-81
2021/04/26 02:44:11;;;;;;;5.90;4.03;;;3.50;99.90;;;;;;5121108;27;20190;-82
2021/04/26 02:46:36;;;;;;;7.55;4.47;;;3.40;99.90;;;;;;5145263;27;20265;-81
2021/04/26 02:49:05;;;;;;;5.80;3.73;;;3.40;99.90;;;;;;5122069;27;20205;-84
2021/04/26 02:51:33;;;;;;;12.82;4.38;;;3.40;99.90;;;;;;5139100;27;20170;-84
2021/04/26 02:54:01;;;;;;;5.20;4.35;;;3.40;99.90;;;;;;5140033;27;20223;-81
2021/04/26 02:56:27;;;;;;;7.90;4.85;;;3.30;99.90;;;;;;5122780;27;20191;-83
2021/04/26 02:58:55;;;;;;;10.10;4.22;;;3.30;99.90;;;;;;5120487;27;20163;-83
2021/04/26 03:01:21;;;;;;;7.00;4.75;;;3.30;99.90;;;;;;5138667;27;20159;-83
2021/04/26 03:03:48;;;;;;;5.40;3.90;;;3.30;99.90;;;;;;5138172;27;20581;-83
2021/04/26 03:06:14;;;;;;;8.23;4.40;;;3.30;99.90;;;;;;5137688;27;20427;-83
2021/04/26 03:08:41;;;;;;;7.38;4.78;;;3.30;99.90;;;;;;5102641;27;20649;-83
2021/04/26 03:11:08;;;;;;;9.43;4.32;;;3.30;99.90;;;;;;5137970;27;20167;-81
2021/04/26 03:13:36;;;;;;;6.68;3.53;;;3.30;99.90;;;;;;5138039;27;20167;-82
2021/04/26 03:16:01;;;;;;;6.10;3.83;;;3.30;99.90;;;;;;5137871;27;20190;-83
2021/04/26 03:18:27;;;;;;;7.90;4.90;;;3.20;99.90;;;;;;5138298;27;20171;-84
2021/04/26 03:20:56;;;;;;;8.65;4.53;;;3.20;99.90;;;;;;5119606;27;20174;-84
2021/04/26 03:23:24;;;;;;;6.03;4.07;;;3.20;99.90;;;;;;5138025;27;20192;-84
2021/04/26 03:25:54;;;;;;;10.85;4.05;;;3.20;99.90;;;;;;5137649;27;20255;-84
2021/04/26 03:28:21;;;;;;;5.28;4.00;;;3.20;99.90;;;;;;5120253;27;20204;-82
2021/04/26 03:30:47;;;;;;;5.07;3.97;;;3.10;99.90;;;;;;5119619;27;20165;-83
2021/04/26 03:33:14;;;;;;;8.80;4.23;;;3.30;99.90;;;;;;5119351;27;20698;-83
2021/04/26 03:35:40;;;;;;;9.13;4.85;;;3.20;99.90;;;;;;5137408;27;20208;-84
2021/04/26 03:38:06;;;;;;;6.32;4.10;;;3.20;99.90;;;;;;5119021;27;20183;-84
2021/04/26 03:40:32;;;;;;;10.03;4.50;;;3.30;99.90;;;;;;5138136;27;20649;-81
2021/04/26 03:43:00;;;;;;;5.10;4.70;;;3.20;99.90;;;;;;5120002;27;20752;-84
2021/04/26 03:45:27;;;;;;;6.90;4.28;;;3.20;99.90;;;;;;5101764;27;20207;-83
2021/04/26 03:47:55;;;;;;;5.45;3.70;;;3.30;99.90;;;;;;5137280;27;20163;-82
2021/04/26 03:50:23;;;;;;;11.38;4.40;;;3.30;99.90;;;;;;5137179;27;20163;-81
2021/04/26 03:52:49;;;;;;;9.07;4.30;;;3.20;99.90;;;;;;5137110;27;20195;-82
2021/04/26 03:55:18;;;;;;;6.40;4.20;;;3.10;99.90;;;;;;5136674;27;20227;-83
2021/04/26 03:57:44;;;;;;;7.30;4.10;;;3.00;99.90;;;;;;5136827;27;20163;-84
2021/04/26 04:00:11;;;;;;;7.70;4.20;;;2.80;99.90;;;;;;5101270;27;20509;-84
2021/04/26 04:02:37;;;;;;;10.23;5.30;;;2.70;99.90;;;;;;5137100;27;20262;-82
2021/04/26 04:05:06;;;;;;;10.30;5.97;;;2.40;99.90;;;;;;5136983;27;20297;-80
2021/04/26 04:07:32;;;;;;;7.97;4.43;;;2.10;99.90;;;;;;5138768;27;20426;-82
2021/04/26 04:09:57;;;;;;;9.80;5.15;;;1.80;99.90;;;;;;5118162;27;20694;-84
2021/04/26 04:12:23;;;;;;;13.80;4.70;;;1.80;99.90;;;;;;5136395;27;20249;-83
2021/04/26 04:14:49;;;;;;;7.00;4.83;;;1.80;99.90;;;;;;5136238;27;20179;-83
2021/04/26 04:17:14;;;;;;;8.63;4.90;;;1.70;99.90;;;;;;5136373;27;20191;-81
2021/04/26 04:19:41;;;;;;;10.30;5.50;;;1.70;99.90;;;;;;5118048;27;20171;-84
2021/04/26 04:22:08;;;;;;;14.13;5.60;;;1.70;99.90;;;;;;5136053;27;20174;-85
2021/04/26 04:24:33;;;;;;;9.35;5.05;;;1.60;99.90;;;;;;5135772;27;20585;-83
2021/04/26 04:26:59;;;;;;;9.10;5.67;;;1.60;99.90;;;;;;5100492;27;20251;-84
2021/04/26 04:29:25;;;;;;;9.10;4.60;;;1.60;99.90;;;;;;5136079;27;20166;-81
2021/04/26 04:31:50;;;;;;;8.03;5.20;;;1.50;99.90;;;;;;5100779;27;20171;-83
2021/04/26 04:34:16;;;;;;;11.13;4.87;;;1.50;99.90;;;;;;5117649;27;20418;-81
2021/04/26 04:36:41;;;;;;;8.27;5.17;;;1.50;99.90;;;;;;5135492;27;20191;-83
2021/04/26 04:39:07;;;;;;;8.77;5.83;;;1.50;99.90;;;;;;5135802;27;20197;-83
2021/04/26 04:41:33;;;;;;;6.50;4.70;;;1.40;99.90;;;;;;5135820;27;20169;-82
2021/04/26 04:44:00;;;;;;;7.80;5.07;;;1.40;99.90;;;;;;5117297;27;20650;-83
2021/04/26 04:46:27;;;;;;;7.78;5.45;;;1.30;99.90;;;;;;5100087;27;20371;-82
2021/04/26 04:48:53;;;;;;;9.10;6.18;;;1.20;99.90;;;;;;5134634;27;20167;-81
2021/04/26 04:51:19;;;;;;;12.82;5.65;;;1.30;99.90;;;;;;5117359;27;20199;-81
2021/04/26 04:53:44;;;;;;;8.80;6.10;;;1.30;99.90;;;;;;5135679;27;20580;-83
2021/04/26 04:56:10;;;;;;;8.40;5.17;;;1.30;99.90;;;;;;5135154;27;20228;-82
2021/04/26 04:58:35;;;;;;;9.27;5.20;;;1.30;99.90;;;;;;5117131;27;20178;-81
2021/04/26 05:01:01;;;;;;;10.43;5.70;;;1.20;99.90;;;;;;5135333;27;20497;-82
2021/04/26 05:03:26;;;;;;;6.37;4.23;;;1.20;99.90;;;;;;5117022;27;20617;-84
2021/04/26 05:05:54;;;;;;;9.63;6.30;;;1.30;99.90;;;;;;5116871;27;20289;-82
2021/04/26 05:08:20;;;;;;;7.10;4.95;;;1.30;99.90;;;;;;5135213;27;20180;-82
2021/04/26 05:10:46;;;;;;;14.37;6.33;;;1.30;99.90;;;;;;5134579;27;20534;-84
2021/04/26 05:13:12;;;;;;;7.97;5.10;;;1.40;99.90;;;;;;5135247;27;20244;-81
2021/04/26 05:15:38;;;;;;;11.98;5.50;;;1.50;99.90;;;;;;5134767;27;20191;-81
2021/04/26 05:18:06;;;;;;;12.90;6.33;;;1.50;99.90;;;;;;5135157;27;20175;-84
2021/04/26 05:20:32;;;;;;;13.98;6.28;;;1.60;99.90;;;;;;5116532;27;20590;-83
2021/04/26 05:22:57;;;;;;;8.80;5.90;;;1.60;99.90;;;;;;5134451;27;20273;-84
2021/04/26 05:25:23;;;;;;;12.57;5.90;;;1.80;99.90;;;;;;5116178;27;20459;-82
2021/04/26 05:27:48;;;;;;;9.57;5.87;;;1.80;99.90;;;;;;5099681;27;20707;-82
2021/04/26 05:30:15;;;;;;;14.87;6.30;;;1.90;99.90;;;;;;5116502;27;20267;-83
2021/04/26 05:32:41;;;;;;;9.85;6.07;;;1.90;99.90;;;;;;5134813;27;20193;-83
2021/04/26 05:35:07;;;;;;;9.00;6.20;;;2.00;99.90;;;;;;5134716;27;20206;-83
2021/04/26 05:37:33;;;;;;;9.07;5.30;;;2.10;99.90;;;;;;5116503;27;20197;-82
2021/04/26 05:39:58;;;;;;;12.53;6.07;;;2.30;99.90;;;;;;5116467;27;20259;-82
2021/04/26 05:42:24;;;;;;;8.83;5.93;;;2.30;99.90;;;;;;5134873;27;20196;-84
2021/04/26 05:44:50;;;;;;;8.40;6.37;;;2.40;99.90;;;;;;5134269;27;20259;-77
2021/04/26 05:47:15;;;;;;;10.23;6.47;;;2.50;99.90;;;;;;5134533;27;20190;-79
2021/04/26 05:49:41;;;;;;;10.07;6.80;;;2.60;99.90;;;;;;5116295;27;20167;-78
2021/04/26 05:52:07;;;;;;;8.37;6.13;;;2.70;99.90;;;;;;5134400;27;20805;-81
2021/04/26 05:54:33;;;;;;;10.93;5.90;;;2.90;99.90;;;;;;5134334;27;20174;-82
2021/04/26 05:56:58;;;;;;;8.47;5.33;;;2.90;99.90;;;;;;5115913;27;20246;-84
2021/04/26 05:59:24;;;;;;;12.90;5.73;;;3.10;99.90;;;;;;5134207;27;20241;-82
2021/04/26 06:01:50;;;;;;;7.23;5.50;;;3.20;99.90;;;;;;5134245;27;20167;-81
2021/04/26 06:04:15;;;;;;;7.23;5.60;;;3.30;99.90;;;;;;5134293;27;20213;-79
2021/04/26 06:06:41;;;;;;;10.80;5.20;;;3.40;99.90;;;;;;5115741;28;20192;-82
2021/04/26 06:09:06;;;;;;;6.53;5.17;;;3.60;99.90;;;;;;5134611;28;20555;-79
2021/04/26 06:11:32;;;;;;;10.80;5.80;;;3.70;99.90;;;;;;5116179;28;20567;-80
2021/04/26 06:13:58;;;;;;;6.60;4.60;;;4.00;99.90;;;;;;5134527;27;20204;-80
2021/04/26 06:16:23;;;;;;;8.67;3.83;;;4.20;99.90;;;;;;5133863;27;20226;-81
2021/04/26 06:18:49;;;;;;;8.20;5.23;;;4.20;99.90;;;;;;5134108;28;20212;-81
2021/04/26 06:21:15;;;;;;;7.77;4.57;;;4.40;99.90;;;;;;5134188;28;20181;-80
2021/04/26 06:23:40;;;;;;;5.87;3.20;;;4.60;99.90;;;;;;5133995;28;20205;-81
2021/04/26 06:26:07;;;;;;;7.57;4.07;;;4.70;99.90;;;;;;5133765;27;20235;-80
2021/04/26 06:28:32;;;;;;;7.57;4.10;;;4.80;99.90;;;;;;5134097;28;20162;-83
2021/04/26 06:30:58;;;;;;;8.20;3.30;;;5.10;99.90;;;;;;5133888;28;20173;-81
2021/04/26 06:33:24;;;;;;;11.47;3.50;;;5.10;99.90;;;;;;5115841;28;20166;-83
2021/04/26 06:35:51;;;;;;;9.13;3.63;;;5.10;99.90;;;;;;5133643;27;20436;-82
2021/04/26 06:38:18;;;;;;;6.57;3.55;;;5.30;99.90;;;;;;5133995;28;20970;-80
2021/04/26 06:40:44;;;;;;;5.95;3.15;;;5.40;99.90;;;;;;5115569;28;20526;-81
2021/04/26 06:43:11;;;;;;;6.77;3.77;;;5.50;99.90;;;;;;5133890;28;20179;-80
2021/04/26 06:45:38;;;;;;;5.55;3.47;;;5.60;99.90;;;;;;5134128;27;20556;-81
2021/04/26 06:48:05;;;;;;;8.40;3.85;;;5.80;99.90;;;;;;5133893;28;20162;-82
2021/04/26 06:50:31;;;;;;;3.83;3.10;;;5.90;99.90;;;;;;5115699;28;20171;-79
2021/04/26 06:52:59;;;;;;;4.20;2.77;;;6.00;99.90;;;;;;5133907;28;20523;-79
2021/04/26 06:55:25;;;;;;;5.68;3.05;;;6.10;99.90;;;;;;5114956;27;20222;-79
2021/04/26 06:57:52;;;;;;;8.50;3.38;;;6.20;99.90;;;;;;5115364;28;20179;-81
2021/04/26 07:00:19;;;;;;;4.15;3.25;;;6.30;99.90;;;;;;5133958;28;20162;-78
2021/04/26 07:02:47;;;;;;;6.88;3.58;;;6.50;99.90;;;;;;5133781;27;20662;-80
2021/04/26 07:05:13;;;;;;;4.05;3.45;;;6.60;99.90;;;;;;5115062;28;20214;-81
2021/04/26 07:07:38;;;;;;;6.03;3.37;;;6.90;99.90;;;;;;5115281;28;20187;-81
2021/04/26 07:10:05;;;;;;;8.37;3.40;;;6.80;99.90;;;;;;5133696;28;20171;-81
2021/04/26 07:12:31;;;;;;;4.53;3.70;;;7.00;99.90;;;;;;5117796;27;20257;-79
2021/04/26 07:14:57;;;;;;;6.53;3.57;;;7.00;99.90;;;;;;5101954;27;20205;-81
2021/04/26 07:17:23;;;;;;;5.87;2.57;;;7.20;99.90;;;;;;5119117;27;20183;-81
2021/04/26 07:19:49;;;;;;;3.92;3.22;;;7.30;99.90;;;;;;5102248;27;20199;-80
2021/04/26 07:22:15;;;;;;;3.80;2.92;;;7.30;99.90;;;;;;5119085;27;20178;-81
2021/04/26 07:24:41;;;;;;;4.80;3.17;;;7.40;99.90;;;;;;5118595;27;20763;-82
2021/04/26 07:27:07;;;;;;;3.30;3.00;;;7.50;99.90;;;;;;5137191;27;20187;-82
2021/04/26 07:29:32;;;;;;;6.77;3.30;;;7.80;99.90;;;;;;5118944;27;20525;-81
2021/04/26 07:32:00;;;;;;;3.97;3.17;;;7.90;99.90;;;;;;5118655;27;20504;-82
2021/04/26 07:34:26;;;;;;;5.63;3.10;;;7.90;99.90;;;;;;5136998;27;20615;-82
2021/04/26 07:36:52;;;;;;;10.57;2.80;;;7.90;99.90;;;;;;5118496;27;20196;-81
2021/04/26 07:39:19;;;;;;;4.67;2.70;;;7.90;99.90;;;;;;5136995;27;20692;-81
2021/04/26 07:41:46;;;;;;;3.72;3.13;;;8.10;99.90;;;;;;5136980;27;20167;-80
2021/04/26 07:44:11;;;;;;;4.63;2.67;;;8.20;99.90;;;;;;5136722;27;20201;-80
2021/04/26 07:46:37;;;;;;;6.70;3.20;;;8.40;99.90;;;;;;5136564;27;20195;-81
2021/04/26 07:49:03;;;;;;;4.17;2.43;;;8.40;99.90;;;;;;5136789;27;20161;-81
2021/04/26 07:51:29;;;;;;;2.50;2.30;;;8.40;99.90;;;;;;5118871;27;20163;-81
2021/04/26 07:53:54;;;;;;;3.70;2.50;;;8.60;99.90;;;;;;5136860;27;20503;-81
2021/04/26 07:56:20;;;;;;;5.70;2.80;;;8.50;99.90;;;;;;5136191;27;20206;-81
2021/04/26 07:58:46;;;;;;;5.60;2.47;;;8.70;99.90;;;;;;5136996;27;20227;-80
2021/04/26 08:01:11;;;;;;;4.37;2.30;;;8.80;99.90;;;;;;5118189;27;20178;-81
2021/04/26 08:03:37;;;;;;;4.13;2.00;;;8.90;99.90;;;;;;5136384;27;20182;-80
2021/04/26 08:06:04;;;;;;;3.03;2.20;;;9.00;99.90;;;;;;5136049;27;20187;-82
2021/04/26 08:08:30;;;;;;;1.77;1.65;;;9.40;99.90;;;;;;5136257;27;20236;-81
2021/04/26 08:10:56;;;;;;;2.38;1.95;;;9.60;99.90;;;;;;5136358;27;20170;-81
2021/04/26 08:13:22;;;;;;;2.60;1.80;;;9.90;99.90;;;;;;5118003;27;20257;-82
2021/04/26 08:15:48;;;;;;;4.90;2.00;;;10.10;99.90;;;;;;5117476;27;20533;-82
2021/04/26 08:18:20;;;;;;;2.83;1.53;;;10.30;99.90;;;;;;5136178;27;20407;-81
2021/04/26 08:20:46;;;;;;;1.73;1.20;;;10.60;99.90;;;;;;5136350;27;20177;-81
2021/04/26 08:23:11;;;;;;;4.10;1.83;;;10.40;99.90;;;;;;5136126;27;20408;-81
2021/04/26 08:25:38;;;;;;;4.27;1.53;;;10.70;99.90;;;;;;5135737;27;20622;-81
2021/04/26 08:28:04;;;;;;;2.63;1.90;;;10.90;99.90;;;;;;5117671;27;20174;-80
2021/04/26 08:30:30;;;;;;;1.73;1.60;;;11.10;99.00;;;;;;5136181;27;20404;-81
2021/04/26 08:32:56;;;;;;;3.40;1.80;;;11.30;97.50;;;;;;5136015;27;20393;-82
2021/04/26 08:35:21;;;;;;;3.60;1.90;;;10.80;98.90;;;;;;5135734;27;20251;-81
2021/04/26 08:37:47;;;;;;;3.67;1.70;;;10.50;99.30;;;;;;5100485;27;20525;-81
2021/04/26 08:40:14;;;;;;;11.17;1.80;;;10.60;99.50;;;;;;5101150;27;20170;-82
2021/04/26 08:42:40;;;;;;;4.17;1.70;;;11.30;95.30;;;;;;5100198;27;20171;-83
2021/04/26 08:45:07;;;;;;;3.23;1.70;;;11.20;95.60;;;;;;5116984;27;20466;-82
2021/04/26 08:47:37;;;;;;;1.90;1.40;;;11.60;94.30;;;;;;5117206;27;20198;-83
2021/04/26 08:50:04;;;;;;;4.23;1.50;;;11.70;93.30;;;;;;5117157;27;20387;-82
2021/04/26 08:52:29;;;;;;;3.50;1.30;;;11.70;92.50;;;;;;5117172;27;20760;-83
2021/04/26 08:54:57;;;;;;;3.57;1.73;;;12.00;91.20;;;;;;5135175;27;20411;-81
2021/04/26 08:57:23;;;;;;;2.67;1.40;;;12.10;88.60;;;;;;5100064;27;20428;-82
2021/04/26 08:59:49;;;;;;;7.23;1.90;;;12.50;91.40;;;;;;5117138;27;20387;-82
2021/04/26 09:02:15;;;;;;;2.60;1.00;;;12.40;89.90;;;;;;5117301;27;20175;-79
2021/04/26 09:04:49;;;;;;;3.50;1.40;;;12.00;86.40;;;;;;5134971;27;20273;-83
2021/04/26 09:07:16;;;;;;;2.60;1.37;;;12.10;88.20;;;;;;5135280;27;20859;-83
2021/04/26 09:09:45;;;;;;;2.70;1.33;;;12.50;85.10;;;;;;5116897;27;20421;-82
2021/04/26 09:12:22;;;;;;;2.10;1.50;;;13.20;83.30;;;;;;5116697;27;20419;-83
2021/04/26 09:14:50;;;;;;;1.80;1.33;;;13.80;80.60;;;;;;5134887;27;20396;-80
2021/04/26 09:17:43;;;;;;;1.67;1.33;;;13.10;75.90;;;;;;5116490;27;20924;-80
2021/04/26 09:20:17;;;;;;;2.33;1.60;;;13.70;78.30;;;;;;5135103;27;20412;-84
2021/04/26 09:23:01;;;;;;;2.83;1.30;;;13.40;75.70;;;;;;5134981;27;20408;-82
2021/04/26 09:25:39;;;;;;;2.03;1.43;;;13.70;77.40;;;;;;5134497;27;20443;-82
2021/04/26 09:28:18;;;;;;;2.37;1.47;;;14.10;74.50;;;;;;5116785;27;20404;-82
2021/04/26 09:30:51;;;;;;;3.63;1.80;;;14.30;74.10;;;;;;5134883;27;20718;-78
2021/04/26 09:33:29;;;;;;;4.57;1.33;;;15.10;71.20;;;;;;5116430;27;20554;-80
2021/04/26 09:36:00;;;;;;;4.80;1.43;;;15.30;66.30;;;;;;5134018;27;20902;-81
2021/04/26 09:38:35;;;;;;;2.53;1.27;;;15.00;68.20;;;;;;5116322;27;20411;-77
2021/04/26 09:41:07;;;;;;;2.23;1.50;;;15.20;67.80;;;;;;5134604;27;20439;-79
2021/04/26 09:43:32;;;;;;;2.03;1.20;;;15.00;67.90;;;;;;5134816;27;20401;-77
2021/04/26 09:45:58;;;;;;;1.90;1.43;;;14.80;63.30;;;;;;5134032;27;20500;-82
2021/04/26 09:48:27;;;;;;;2.47;1.60;;;14.80;66.20;;;;;;5134584;27;20167;-78
2021/04/26 09:51:08;;;;;;;1.73;1.10;;;14.90;68.10;;;;;;5134523;27;20169;-79
2021/04/26 09:53:35;;;;;;;2.80;1.10;;;15.30;65.70;;;;;;5134779;27;20396;-82
2021/04/26 09:56:24;;;;;;;2.00;1.57;;;14.90;65.90;;;;;;5134199;27;20493;-77
2021/04/26 09:58:52;;;;;;;2.00;1.40;;;14.70;62.70;;;;;;5116716;27;20396;-82
2021/04/26 10:01:18;;;;;;;1.73;1.40;;;15.30;59.70;;;;;;5134188;27;20491;-82
2021/04/26 10:03:44;;;;;;;3.03;1.80;;;15.50;61.20;;;;;;5134349;27;20431;-79
2021/04/26 10:06:13;;;;;;;3.20;1.60;;;15.60;62.20;;;;;;5133993;27;20428;-77
2021/04/26 10:08:42;;;;;;;1.67;1.23;;;14.60;60.10;;;;;;5134244;27;20569;-80
2021/04/26 10:11:10;;;;;;;4.07;1.40;;;15.30;62.50;;;;;;5115640;28;20412;-78
2021/04/26 10:13:36;;;;;;;5.63;1.73;;;16.10;61.40;;;;;;5133635;28;20931;-81
2021/04/26 10:16:03;;;;;;;1.60;1.50;;;16.10;58.00;;;;;;5115538;28;20424;-80
2021/04/26 10:18:39;;;;;;;3.97;1.50;;;15.80;56.40;;;;;;5134145;28;20432;-76
2021/04/26 10:21:27;;;;;;;2.70;1.60;;;15.30;55.60;;;;;;5115602;28;20795;-76
2021/04/26 10:23:54;;;;;;;2.33;1.30;;;15.20;58.30;;;;;;5134170;28;20457;-77
2021/04/26 10:26:40;;;;;;;2.47;1.63;;;16.20;59.10;;;;;;5115387;28;20440;-82
2021/04/26 10:29:17;;;;;;;2.60;1.50;;;16.90;58.30;;;;;;5115576;28;20412;-76
2021/04/26 10:31:59;;;;;;;3.67;1.73;;;16.50;57.60;;;;;;5117312;28;20400;-75
2021/04/26 10:34:26;;;;;;;2.40;1.60;;;15.30;54.00;;;;;;5115545;28;20975;-77
2021/04/26 10:36:57;;;;;;;3.20;1.93;;;15.60;56.20;;;;;;5115368;28;20919;-77
2021/04/26 10:39:25;;;;;;;3.17;1.80;;;15.80;57.40;;;;;;5116626;28;20529;-77
2021/04/26 10:42:07;;;;;;;2.37;1.40;;;16.30;55.90;;;;;;5133895;27;20418;-78
2021/04/26 10:44:49;;;;;;;3.27;2.30;;;16.30;55.70;;;;;;5133555;27;21002;-80
2021/04/26 10:47:25;;;;;;;1.50;1.40;;;16.30;58.20;;;;;;5135887;27;20423;-84
2021/04/26 10:50:01;;;;;;;2.63;1.60;;;16.60;56.80;;;;;;5133893;27;20408;-83
2021/04/26 10:52:30;;;;;;;2.00;1.50;;;17.70;56.50;;;;;;5117975;27;20463;-81
2021/04/26 10:55:01;;;;;;;1.90;1.50;;;16.60;52.10;;;;;;5136427;27;20408;-82
2021/04/26 10:57:33;;;;;;;2.50;1.70;;;16.90;54.20;;;;;;5136366;27;20453;-80
2021/04/26 11:00:25;;;;;;;2.50;1.30;;;17.80;51.60;;;;;;5118388;27;20432;-81
2021/04/26 11:02:59;;;;;;;3.23;1.80;;;17.60;54.30;;;;;;5117935;27;20466;-82
2021/04/26 11:05:52;;;;;;;4.90;2.20;;;18.10;52.20;;;;;;5119549;27;20475;-82
2021/04/26 11:08:28;;;;;;;2.57;1.60;;;18.30;52.30;;;;;;5114464;28;20734;-81
2021/04/26 11:13:54;;;;;;;2.80;1.67;;;17.70;50.10;;;;;;5117338;28;20803;-82
2021/04/26 11:16:21;;;;;;;4.67;3.50;;;18.70;50.00;;;;;;5119727;28;20417;-84
2021/04/26 11:19:13;;;;;;;4.63;1.87;;;18.70;49.90;;;;;;5116072;28;20405;-82
2021/04/26 11:21:46;;;;;;;5.27;2.10;;;18.10;49.40;;;;;;5116774;28;20489;-82
2021/04/26 11:24:33;;;;;;;5.43;1.70;;;17.10;48.40;;;;;;5097994;28;20453;-83
2021/04/26 11:27:13;;;;;;;2.67;2.10;;;17.80;50.70;;;;;;5098259;28;20835;-83
2021/04/26 11:29:42;;;;;;;2.03;1.83;;;18.70;49.40;;;;;;5098496;28;20466;-82
2021/04/26 11:32:08;;;;;;;4.30;1.60;;;17.90;48.90;;;;;;5115860;28;20419;-82
2021/04/26 11:34:50;;;;;;;4.10;1.70;;;18.20;49.20;;;;;;5116196;28;20921;-83
2021/04/26 11:37:21;;;;;;;3.47;1.60;;;17.50;48.50;;;;;;5115598;28;20828;-84
2021/04/26 11:39:48;;;;;;;2.13;1.40;;;18.00;49.70;;;;;;5096655;28;20489;-84
2021/04/26 11:42:31;;;;;;;2.87;1.73;;;17.20;50.10;;;;;;5115558;28;20401;-82
2021/04/26 11:44:58;;;;;;;5.70;1.70;;;18.10;48.90;;;;;;5097417;28;20436;-84
2021/04/26 11:47:25;;;;;;;2.73;1.67;;;19.40;50.50;;;;;;5115462;28;20424;-84
2021/04/26 11:49:53;;;;;;;5.43;1.57;;;19.80;48.20;;;;;;5101716;27;20416;-83
2021/04/26 11:52:21;;;;;;;3.27;2.47;;;19.50;50.10;;;;;;5117525;27;20420;-83
2021/04/26 11:54:52;;;;;;;2.30;1.63;;;19.90;48.90;;;;;;5135689;27;20501;-84
2021/04/26 11:57:20;;;;;;;1.87;1.50;;;20.60;45.60;;;;;;5135657;27;20473;-84
2021/04/26 11:59:50;;;;;;;2.30;2.00;;;21.10;47.00;;;;;;5136224;27;20953;-84
2021/04/26 12:02:40;;;;;;;2.73;2.33;;;21.20;46.00;;;;;;5117460;27;20835;-84
2021/04/26 12:05:10;;;;;;;3.30;2.83;;;20.80;45.50;;;;;;5135804;27;20456;-83
2021/04/26 12:07:36;;;;;;;3.50;2.60;;;20.00;44.60;;;;;;5135791;27;20427;-84
2021/04/26 12:10:05;;;;;;;3.40;2.03;;;19.90;44.20;;;;;;5135369;27;20423;-83
2021/04/26 12:12:33;;;;;;;2.03;1.60;;;19.60;43.60;;;;;;5135872;27;20890;-82
2021/04/26 12:15:05;;;;;;;2.77;2.10;;;21.20;49.40;;;;;;5135329;27;20464;-83
2021/04/26 12:17:36;;;;;;;2.40;1.80;;;22.10;47.80;;;;;;5135581;27;20420;-82
2021/04/26 12:20:10;;;;;;;4.33;2.17;;;22.20;45.80;;;;;;5135631;27;20396;-85
2021/04/26 12:22:36;;;;;;;3.60;2.07;;;21.50;46.10;;;;;;5117765;27;20400;-84
2021/04/26 12:25:05;;;;;;;3.00;2.10;;;21.30;43.50;;;;;;5116407;27;20891;-84
2021/04/26 12:27:31;;;;;;;2.50;1.80;;;21.40;44.10;;;;;;5135605;27;20427;-83
2021/04/26 12:30:10;;;;;;;2.77;1.60;;;22.20;45.30;;;;;;5135836;27;20760;-84
2021/04/26 12:32:36;;;;;;;2.63;2.00;;;22.20;45.20;;;;;;5134908;27;20564;-83
2021/04/26 12:35:05;;;;;;;2.30;2.10;;;21.40;44.20;;;;;;5116812;27;20444;-84
2021/04/26 12:37:34;;;;;;;1.90;1.53;;;22.60;45.20;;;;;;5117678;27;20424;-84
2021/04/26 12:40:10;;;;;;;3.80;2.30;;;23.20;46.80;;;;;;5116822;27;20947;-82
2021/04/26 12:42:37;;;;;;;3.07;1.80;;;22.40;42.00;;;;;;5135626;27;20420;-83
2021/04/26 12:45:21;;;;;;;4.40;2.07;;;23.10;43.50;;;;;;5116573;27;20804;-83
2021/04/26 12:48:05;;;;;;;2.10;1.90;;;23.20;41.70;;;;;;5134415;27;20479;-83
2021/04/26 12:50:36;;;;;;;3.73;1.90;;;23.00;41.70;;;;;;5127168;27;20396;-83
2021/04/26 12:53:19;;;;;;;1.90;1.60;;;23.40;42.50;;;;;;5134435;27;20416;-82
2021/04/26 12:55:48;;;;;;;3.60;1.77;;;23.70;42.20;;;;;;5114541;28;20460;-77
2021/04/26 12:58:16;;;;;;;2.37;1.90;;;24.10;41.70;;;;;;5114698;28;20797;-76
2021/04/26 13:00:50;;;;;;;2.60;1.90;;;23.40;39.30;;;;;;5114243;28;20417;-80
2021/04/26 13:03:37;;;;;;;3.43;2.53;;;24.20;41.80;;;;;;5114631;28;20459;-78